Kovrov, Russia
Current Conditions -  °F | °C
As of 7:30 AM on Thursday 23 Oct 2014 (Local Time) from UUDL Reporting Station
Clear Clear  
Wind Chill: -2°   Ceiling: Unl
Heat Index:   Visibility: 6mi
Dew Point:   Wind: 7mph
Humidity: 79%   Direction: 310°NW
Pressure: 30.15"   Gusts: NA
Location:  56.36°N, 41.32°E
Report Text: UUDL 230430Z 31003MPS CAVOK M13/M16 Q1021 NOSIG RMK QFE75723850340
Loading
Personal Weather Stations






























Interactive Weather Map
Tropical Storm Tracking
New forecast layout! Learn more

10-Day Weather Forecast

Advertisements
Track Severe Weather on mobile